Time;durP1;ratioP1;P1;durP2;ratioP2;P2;SDS_P1;SDS_P2;PMS_P1;PMS_P2;Temp;Humidity;BMP_temperature;BMP_pressure;BME280_temperature;BME280_humidity;BME280_pressure;Samples;Min_cycle;Max_cycle;Signal;HPM_P1;HPM_P2
2022/09/07 00:00:31;;;;;;;;;;;;;;;23.05;52.04;101024.09;2265069;78;50351;-74
2022/09/07 00:03:33;;;;;;;;;;;;;;;23.03;51.94;101022.92;2275677;77;50718;-72
2022/09/07 00:06:34;;;;;;;;;;;;;;;23.06;51.96;101022.21;2288216;77;50043;-72
2022/09/07 00:09:36;;;;;;;;;;;;;;;23.05;51.89;101010.59;2307966;77;50436;-71
2022/09/07 00:12:37;;;;;;;;;;;;;;;23.04;51.94;101010.26;2307133;77;50630;-71
2022/09/07 00:15:39;;;;;;;;;;;;;;;23.06;51.89;100991.17;2307834;77;51500;-71
2022/09/07 00:18:40;;;;;;;;;;;;;;;23.05;51.88;100982.25;2307876;77;50748;-72
2022/09/07 00:21:42;;;;;;;;;;;;;;;23.04;51.92;100984.62;2275765;77;52517;-71
2022/09/07 00:24:44;;;;;;;;;;;;;;;23.03;51.91;100973.00;2307111;77;51520;-71
2022/09/07 00:27:45;;;;;;;;;;;;;;;23.00;52.04;100969.36;2306826;77;50011;-72
2022/09/07 00:30:47;;;;;;;;;;;;;;;23.00;52.00;100976.11;2306992;77;51846;-70
2022/09/07 00:33:49;;;;;;;;;;;;;;;23.01;51.98;100989.08;2256093;77;51283;-71
2022/09/07 00:36:50;;;;;;;;;;;;;;;23.00;51.94;100977.46;2286524;77;50087;-71
2022/09/07 00:39:52;;;;;;;;;;;;;;;23.02;51.97;100974.57;2296653;77;50502;-72
2022/09/07 00:42:53;;;;;;;;;;;;;;;23.01;51.95;100983.69;2296678;77;50735;-70
2022/09/07 00:45:55;;;;;;;;;;;;;;;23.01;51.93;100983.16;2268117;77;51775;-71
2022/09/07 00:48:58;;;;;;;;;;;;;;;23.02;51.90;100986.19;2296789;77;51495;-71
2022/09/07 00:52:00;;;;;;;;;;;;;;;23.02;51.84;100980.80;2296747;77;51568;-70
2022/09/07 00:55:03;;;;;;;;;;;;;;;23.03;51.87;100973.00;2296798;77;50430;-71
2022/09/07 00:58:05;;;;;;;;;;;;;;;23.01;51.93;100979.63;2266758;77;51099;-71
2022/09/07 01:01:06;;;;;;;;;;;;;;;23.00;51.94;100982.03;2296659;77;50741;-71
2022/09/07 01:04:08;;;;;;;;;;;;;;;22.99;51.94;100971.77;2244484;77;51011;-70
2022/09/07 01:07:09;;;;;;;;;;;;;;;22.99;51.95;100980.34;2293876;77;51543;-71
2022/09/07 01:10:11;;;;;;;;;;;;;;;22.99;51.94;100976.30;2268382;77;52499;-70
2022/09/07 01:13:14;;;;;;;;;;;;;;;22.99;51.88;100967.72;2296786;77;51512;-70
2022/09/07 01:16:20;;;;;;;;;;;;;;;22.98;51.87;100959.28;2293574;77;50337;-70
2022/09/07 01:19:33;;;;;;;;;;;;;;;23.00;51.83;100956.39;2296859;77;51517;-70
2022/09/07 01:22:55;;;;;;;;;;;;;;;22.99;51.80;100965.51;2268399;77;49696;-73
2022/09/07 01:26:04;;;;;;;;;;;;;;;23.00;51.81;100971.23;2296552;77;51566;-71
2022/09/07 01:29:10;;;;;;;;;;;;;;;22.99;51.79;100960.11;2296710;77;50431;-73
2022/09/07 01:32:16;;;;;;;;;;;;;;;22.99;51.75;100958.76;2289842;77;51671;-73
2022/09/07 01:35:22;;;;;;;;;;;;;;;23.00;51.72;100965.31;2261005;77;49719;-73
2022/09/07 01:38:25;;;;;;;;;;;;;;;22.99;51.78;100968.20;2296836;77;51587;-70
2022/09/07 01:41:32;;;;;;;;;;;;;;;22.98;51.79;100959.28;2296813;77;51417;-71
2022/09/07 01:44:40;;;;;;;;;;;;;;;22.99;51.75;100963.66;2296775;77;50833;-70
2022/09/07 01:47:43;;;;;;;;;;;;;;;22.97;51.84;100961.69;2267199;77;51016;-71
2022/09/07 01:50:49;;;;;;;;;;;;;;;22.98;51.85;100955.77;2296767;77;51503;-71
2022/09/07 01:53:54;;;;;;;;;;;;;;;22.96;51.84;100955.09;2296156;77;50480;-71
2022/09/07 01:56:58;;;;;;;;;;;;;;;22.95;51.88;100953.45;2296550;77;51632;-71
2022/09/07 02:00:01;;;;;;;;;;;;;;;22.98;51.75;100948.49;2268228;77;50808;-70
2022/09/07 02:03:17;;;;;;;;;;;;;;;22.98;51.73;100949.02;2287958;77;50401;-71
2022/09/07 02:06:20;;;;;;;;;;;;;;;22.97;51.81;100955.46;2266225;77;50725;-72
2022/09/07 02:09:26;;;;;;;;;;;;;;;22.97;51.83;100956.81;2265196;78;51527;-71
2022/09/07 02:12:29;;;;;;;;;;;;;;;23.00;51.57;100949.13;2233771;78;51846;-71
2022/09/07 02:15:47;;;;;;;;;;;;;;;23.00;51.63;100946.95;2265039;78;50825;-73
2022/09/07 02:18:50;;;;;;;;;;;;;;;23.00;51.57;100948.30;2256547;79;51633;-71
2022/09/07 02:21:53;;;;;;;;;;;;;;;23.00;51.55;100948.30;2264470;78;50367;-71
2022/09/07 02:24:56;;;;;;;;;;;;;;;22.98;51.59;100940.92;2265201;77;50730;-71
2022/09/07 02:28:06;;;;;;;;;;;;;;;23.00;51.50;100943.73;2233545;78;51943;-71
2022/09/07 02:31:07;;;;;;;;;;;;;;;23.01;51.49;100940.50;2265030;77;50480;-71
2022/09/07 02:34:09;;;;;;;;;;;;;;;23.01;51.55;100935.93;2232611;78;50736;-70
2022/09/07 02:37:10;;;;;;;;;;;;;;;23.01;51.53;100944.02;2226130;80;50645;-71
2022/09/07 02:40:13;;;;;;;;;;;;;;;23.04;51.44;100942.78;2232751;79;52422;-71
2022/09/07 02:43:15;;;;;;;;;;;;;;;22.99;51.56;100939.38;2226424;80;50501;-71
2022/09/07 02:46:21;;;;;;;;;;;;;;;23.03;51.46;100942.48;2225990;80;50380;-70
2022/09/07 02:49:41;;;;;;;;;;;;;;;23.02;51.51;100943.53;2208282;79;51299;-70
2022/09/07 02:53:02;;;;;;;;;;;;;;;23.03;51.50;100943.83;2226256;80;51493;-70
2022/09/07 02:56:22;;;;;;;;;;;;;;;23.07;51.31;100934.30;2226164;79;51585;-71
2022/09/07 02:59:25;;;;;;;;;;;;;;;23.08;51.33;100931.08;2226194;79;50411;-71
2022/09/07 03:02:28;;;;;;;;;;;;;;;23.08;51.26;100923.80;2219611;77;49700;-71
2022/09/07 03:05:39;;;;;;;;;;;;;;;23.09;51.24;100930.85;2286151;77;50183;-70
2022/09/07 03:08:43;;;;;;;;;;;;;;;23.08;51.25;100923.80;2296500;77;50767;-71
2022/09/07 03:11:44;;;;;;;;;;;;;;;23.09;51.14;100927.33;2296923;77;50441;-71
2022/09/07 03:14:46;;;;;;;;;;;;;;;23.10;51.09;100927.13;2267184;77;51060;-70
2022/09/07 03:17:47;;;;;;;;;;;;;;;23.08;51.14;100924.33;2293620;77;50479;-71
2022/09/07 03:20:49;;;;;;;;;;;;;;;23.08;51.13;100925.67;2296864;77;50316;-73
2022/09/07 03:23:51;;;;;;;;;;;;;;;23.09;51.04;100928.16;2296895;77;50728;-71
2022/09/07 03:26:52;;;;;;;;;;;;;;;23.11;51.06;100938.75;2268366;77;50172;-71
2022/09/07 03:29:54;;;;;;;;;;;;;;;23.09;51.03;100937.59;2293803;77;50285;-73
2022/09/07 03:32:55;;;;;;;;;;;;;;;23.09;50.99;100926.80;2285960;77;50637;-71
2022/09/07 03:35:58;;;;;;;;;;;;;;;23.09;51.01;100931.38;2281980;77;51516;-71
2022/09/07 03:39:00;;;;;;;;;;;;;;;23.08;51.01;100923.80;2296939;77;51565;-71
2022/09/07 03:42:01;;;;;;;;;;;;;;;23.07;51.02;100924.86;2294014;77;51416;-70
2022/09/07 03:45:03;;;;;;;;;;;;;;;23.07;50.97;100914.06;2296976;77;51483;-71
2022/09/07 03:48:05;;;;;;;;;;;;;;;23.09;50.94;100911.95;2293786;77;50591;-71
2022/09/07 03:51:07;;;;;;;;;;;;;;;23.07;50.95;100919.45;2266926;77;50902;-71
2022/09/07 03:54:09;;;;;;;;;;;;;;;23.08;50.95;100907.61;2296964;77;50407;-71
2022/09/07 03:57:10;;;;;;;;;;;;;;;23.07;50.92;100903.27;2293625;77;50721;-71
2022/09/07 04:00:12;;;;;;;;;;;;;;;23.06;50.98;100904.28;2278621;77;51389;-74
2022/09/07 04:03:14;;;;;;;;;;;;;;;23.06;51.00;100891.31;2264830;77;51386;-71
2022/09/07 04:06:16;;;;;;;;;;;;;;;23.05;50.97;100885.09;2296663;77;51584;-71
2022/09/07 04:09:17;;;;;;;;;;;;;;;23.05;50.97;100879.69;2296849;77;50275;-72
2022/09/07 04:12:19;;;;;;;;;;;;;;;23.00;51.09;100873.56;2296909;77;50428;-71
2022/09/07 04:15:20;;;;;;;;;;;;;;;23.00;51.17;100876.25;2260528;77;50102;-71
2022/09/07 04:18:22;;;;;;;;;;;;;;;23.02;51.05;100870.66;2296545;77;51500;-72
2022/09/07 04:21:24;;;;;;;;;;;;;;;23.03;51.06;100870.96;2296783;77;50386;-72
2022/09/07 04:24:26;;;;;;;;;;;;;;;23.03;51.05;100874.48;2296654;77;51492;-72
2022/09/07 04:27:27;;;;;;;;;;;;;;;23.05;50.95;100870.24;2266832;77;51065;-71
2022/09/07 04:30:29;;;;;;;;;;;;;;;23.07;50.99;100878.11;2296586;77;51347;-71
2022/09/07 04:33:31;;;;;;;;;;;;;;;23.07;50.99;100883.52;2265091;78;50405;-72
2022/09/07 04:36:32;;;;;;;;;;;;;;;23.06;51.00;100884.03;2264975;78;51442;-74
2022/09/07 04:39:34;;;;;;;;;;;;;;;23.05;51.00;100883.73;2233763;78;51030;-71
2022/09/07 04:42:36;;;;;;;;;;;;;;;23.02;50.99;100879.59;2260012;78;50371;-71
2022/09/07 04:45:37;;;;;;;;;;;;;;;23.04;50.90;100884.27;2265176;78;51545;-73
2022/09/07 04:48:39;;;;;;;;;;;;;;;23.04;50.92;100878.87;2259671;78;50356;-74
2022/09/07 04:51:43;;;;;;;;;;;;;;;23.01;51.00;100885.17;2233756;78;49498;-71
2022/09/07 04:54:46;;;;;;;;;;;;;;;23.03;50.92;100877.71;2260014;78;51476;-71
2022/09/07 04:57:49;;;;;;;;;;;;;;;23.06;50.93;100876.47;2264264;78;50723;-70
2022/09/07 05:00:50;;;;;;;;;;;;;;;23.01;51.08;100874.37;2267777;77;50293;-72
2022/09/07 05:03:52;;;;;;;;;;;;;;;23.03;50.72;100873.66;2296867;77;50356;-71
2022/09/07 05:06:53;;;;;;;;;;;;;;;23.02;50.88;100869.31;2293779;77;50731;-71
2022/09/07 05:09:56;;;;;;;;;;;;;;;23.02;50.88;100874.19;2295248;77;50283;-71
2022/09/07 05:12:57;;;;;;;;;;;;;;;23.01;50.85;100869.81;2257064;79;51457;-71
2022/09/07 05:16:00;;;;;;;;;;;;;;;23.00;50.78;100873.56;2198229;79;50976;-70
2022/09/07 05:19:02;;;;;;;;;;;;;;;23.01;50.70;100873.03;2227468;79;50433;-71
2022/09/07 05:22:04;;;;;;;;;;;;;;;23.03;50.56;100863.69;2257076;79;51566;-73
2022/09/07 05:25:06;;;;;;;;;;;;;;;23.02;50.55;100863.39;2257114;79;50219;-72
2022/09/07 05:28:08;;;;;;;;;;;;;;;23.02;50.43;100863.39;2261919;78;50724;-72
2022/09/07 05:31:10;;;;;;;;;;;;;;;23.02;50.45;100870.66;2285203;77;50688;-73
2022/09/07 05:34:12;;;;;;;;;;;;;;;23.02;50.46;100857.17;2256955;77;50435;-72
2022/09/07 05:37:13;;;;;;;;;;;;;;;23.03;50.36;100858.30;2273428;77;51605;-73
2022/09/07 06:21:34;;;;;;;;;;;;;;;23.52;49.50;100866.97;2121916;82;22567;-74
2022/09/07 06:31:55;;;;;;;;;;;;;;;23.62;49.11;100866.02;2088941;84;22490;-74
2022/09/07 06:38:44;;;;;;;;;;;;;;;23.67;48.92;100868.09;2016107;87;23109;-74
2022/09/07 06:41:50;;;;;;;;;;;;;;;23.70;48.74;100866.31;2037802;85;50393;-74
2022/09/07 06:45:11;;;;;;;;;;;;;;;23.71;48.61;100866.61;2067371;83;51376;-74
2022/09/07 06:58:24;;;;;;;;;;;;;;;23.69;47.99;100865.48;2099243;82;22791;-75
2022/09/07 07:08:33;;;;;;;;;;;;;;;23.64;48.05;100849.09;1879461;92;23168;-74
2022/09/07 07:15:22;;;;;;;;;;;;;;;23.63;47.93;100846.58;1823884;94;24245;-75
2022/09/07 07:18:51;;;;;;;;;;;;;;;;;;;;;
2022/09/07 07:28:57;;;;;;;;;;;;;;;;;;;;;
2022/09/07 07:32:34;;;;;;;;;;;;;;;;;;;;;
2022/09/07 07:39:31;;;;;;;;;;;;;;;;;;;;;
2022/09/07 07:59:47;;;;;;;;;;;;;;;;;;;;;
2022/09/07 08:10:47;;;;;;;;;;;;;;;;;;;;;
2022/09/07 08:23:22;;;;;;;;;;;;;;;23.65;47.42;100830.47;1969195;87;22842;-75
2022/09/07 08:36:57;;;;;;;;;;;;;;;;;;;;;
2022/09/07 08:53:09;;;;;;;;;;;;;;;23.59;47.29;100817.83;2004451;86;22459;-74
2022/09/07 08:59:55;;;;;;;;;;;;;;;23.59;47.28;100819.17;1912559;90;22325;-74
2022/09/07 09:20:03;;;;;;;;;;;;;;;23.52;47.42;100790.53;2091629;82;22967;-75
2022/09/07 09:40:19;;;;;;;;;;;;;;;23.47;47.44;100792.51;2113728;80;24147;-75
2022/09/07 09:47:01;;;;;;;;;;;;;;;;;;;;;
2022/09/07 09:56:40;;;;;;;;;;;;;;;23.41;47.59;100777.16;2147659;82;51682;-74
2022/09/07 10:24:05;;;;;;;;;;;;;;;23.33;47.79;100745.82;2093014;84;22618;-76
2022/09/07 10:27:44;;;;;;;;;;;;;;;23.35;47.78;100750.99;2070755;84;23450;-75
2022/09/07 10:31:20;;;;;;;;;;;;;;;23.35;47.75;100747.80;2076824;83;23532;-75
2022/09/07 10:34:46;;;;;;;;;;;;;;;23.32;47.81;100747.38;2013765;86;23648;-75
2022/09/07 10:38:04;;;;;;;;;;;;;;;;;;;;;
2022/09/07 11:24:48;;;;;;;;;;;;;;;23.24;48.13;100730.88;2185258;77;23517;-75
2022/09/07 11:27:57;;;;;;;;;;;;;;;;;;;;;
2022/09/07 11:34:25;;;;;;;;;;;;;;;23.24;48.18;100726.30;2271726;76;22990;-74
2022/09/07 11:37:58;;;;;;;;;;;;;;;;;;;;;
2022/09/07 11:44:47;;;;;;;;;;;;;;;23.28;48.17;100731.30;2233480;76;22389;-74
2022/09/07 11:58:25;;;;;;;;;;;;;;;23.36;48.11;100729.72;2298874;72;22951;-74
2022/09/07 12:12:28;;;;;;;;;;;;;;;23.26;48.81;100732.33;2262874;75;23548;-74
2022/09/07 12:19:03;;;;;;;;;;;;;;;23.34;48.93;100724.52;2256207;77;22727;-71
2022/09/07 12:22:44;;;;;;;;;;;;;;;;;;;;;
2022/09/07 12:25:40;;;;;;;;;;;;;;;23.40;48.98;100705.28;2242208;79;21810;-72
2022/09/07 12:36:02;;;;;;;;;;;;;;;23.40;49.16;100703.43;2208778;78;23265;-74
2022/09/07 12:39:18;;;;;;;;;;;;;;;23.40;49.20;100705.28;2141029;81;24026;-72
2022/09/07 12:52:36;;;;;;;;;;;;;;;23.36;49.73;100691.39;2115286;77;22387;-74
2022/09/07 13:09:56;;;;;;;;;;;;;;;23.37;49.76;100674.13;2162524;76;21897;-75
2022/09/07 13:20:54;;;;;;;;;;;;;;;;;;;;;
2022/09/07 13:27:46;;;;;;;;;;;;;;;;;;;;;
2022/09/07 13:56:02;;;;;;;;;;;;;;;23.43;49.03;100645.47;2016504;85;23313;-74
2022/09/07 14:17:19;;;;;;;;;;;;;;;23.46;48.87;100646.38;2128700;82;22730;-75
2022/09/07 14:38:07;;;;;;;;;;;;;;;;;;;;;
2022/09/07 14:41:40;;;;;;;;;;;;;;;;;;;;;
2022/09/07 14:48:17;;;;;;;;;;;;;;;;;;;;;
2022/09/07 14:57:39;;;;;;;;;;;;;;;;;;;;;
2022/09/07 15:07:58;;;;;;;;;;;;;;;23.35;49.25;100621.39;1896103;91;22885;-75
2022/09/07 15:14:15;;;;;;;;;;;;;;;23.36;49.49;100617.66;1840407;94;24330;-73
2022/09/07 15:21:10;;;;;;;;;;;;;;;;;;;;;
2022/09/07 15:24:19;;;;;;;;;;;;;;;23.40;49.70;100608.06;1838135;93;22990;-75
2022/09/07 15:27:37;;;;;;;;;;;;;;;23.40;49.80;100610.27;1867048;95;22521;-75
2022/09/07 15:30:47;;;;;;;;;;;;;;;23.50;50.07;100613.00;1865091;92;50317;-74
2022/09/07 15:34:08;;;;;;;;;;;;;;;23.54;50.26;100621.81;1901146;91;22836;-74
2022/09/07 15:37:42;;;;;;;;;;;;;;;23.55;50.59;100611.30;1940855;90;22555;-73
2022/09/07 16:37:25;;;;;;;;;;;;;;;;;;;;;
2022/09/07 17:27:11;;;;;;;;;;;;;;;;;;;;;
2022/09/07 20:33:31;;;;;;;;;;;;;;;;;;;;;
2022/09/07 20:43:47;;;;;;;;;;;;;;;23.57;53.72;100541.70;2163066;81;24318;-76
2022/09/07 20:54:15;;;;;;;;;;;;;;;;;;;;;
2022/09/07 21:00:33;;;;;;;;;;;;;;;23.61;53.10;100529.92;2070850;84;22795;-76
2022/09/07 21:03:34;;;;;;;;;;;;;;;23.63;52.99;100532.70;2092508;83;50676;-75
2022/09/07 21:06:36;;;;;;;;;;;;;;;23.64;52.93;100535.73;2048842;86;50883;-76
2022/09/07 21:09:37;;;;;;;;;;;;;;;23.64;52.93;100539.78;2052424;85;51528;-75
2022/09/07 21:12:39;;;;;;;;;;;;;;;23.63;52.92;100531.35;2076029;84;52463;-75
2022/09/07 21:15:41;;;;;;;;;;;;;;;23.63;52.99;100538.11;2077133;85;50383;-75
2022/09/07 21:18:43;;;;;;;;;;;;;;;23.60;53.06;100537.20;2062760;83;51785;-77
2022/09/07 21:21:44;;;;;;;;;;;;;;;23.61;53.02;100540.72;2123760;83;50651;-76
2022/09/07 21:24:46;;;;;;;;;;;;;;;23.58;53.11;100533.92;2146755;83;51532;-76
2022/09/07 21:27:47;;;;;;;;;;;;;;;23.56;53.22;100534.66;2147912;83;50718;-77
2022/09/07 21:30:56;;;;;;;;;;;;;;;23.57;53.12;100529.55;2135255;79;50071;-77
2022/09/07 21:33:58;;;;;;;;;;;;;;;23.58;53.12;100523.61;2218337;78;50648;-76
2022/09/07 21:37:00;;;;;;;;;;;;;;;23.57;53.13;100521.44;2208808;79;50663;-75
2022/09/07 21:40:04;;;;;;;;;;;;;;;23.56;53.14;100521.15;2237126;79;50761;-76
2022/09/07 21:43:05;;;;;;;;;;;;;;;23.54;53.14;100514.31;2226159;79;22242;-75
2022/09/07 21:46:11;;;;;;;;;;;;;;;23.55;53.13;100521.36;2204680;79;50061;-75
2022/09/07 21:49:12;;;;;;;;;;;;;;;23.54;53.10;100527.81;2236719;79;50725;-76
2022/09/07 21:52:14;;;;;;;;;;;;;;;23.54;53.08;100521.06;2179369;79;50022;-76
2022/09/07 21:55:16;;;;;;;;;;;;;;;23.54;53.11;100524.58;2178034;79;52500;-75
2022/09/07 21:58:17;;;;;;;;;;;;;;;23.53;53.20;100528.34;2201472;79;51400;-74
2022/09/07 22:01:19;;;;;;;;;;;;;;;23.52;53.29;100536.66;2234089;79;50286;-75
2022/09/07 22:04:21;;;;;;;;;;;;;;;23.52;53.29;100528.02;2202299;79;50625;-75
2022/09/07 22:07:22;;;;;;;;;;;;;;;23.51;53.31;100530.43;2215113;79;50074;-74
2022/09/07 22:10:24;;;;;;;;;;;;;;;23.51;53.29;100533.13;2200251;79;50716;-75
2022/09/07 22:13:25;;;;;;;;;;;;;;;23.52;53.27;100536.66;2189136;80;51491;-74
2022/09/07 22:16:27;;;;;;;;;;;;;;;23.51;53.39;100537.71;2189342;80;51461;-74
2022/09/07 22:19:28;;;;;;;;;;;;;;;23.52;53.41;100531.25;2189215;80;51237;-74
2022/09/07 22:22:30;;;;;;;;;;;;;;;23.46;53.61;100532.95;2222400;80;50096;-75
2022/09/07 22:25:32;;;;;;;;;;;;;;;23.45;53.61;100531.28;2193016;79;50782;-74
2022/09/07 22:28:33;;;;;;;;;;;;;;;23.47;53.56;100531.37;2209210;79;51260;-75
2022/09/07 22:31:35;;;;;;;;;;;;;;;23.46;53.58;100518.11;2213980;79;52628;-75
2022/09/07 22:34:37;;;;;;;;;;;;;;;23.44;53.64;100528.30;2214854;79;52394;-75
2022/09/07 22:37:38;;;;;;;;;;;;;;;23.41;53.68;100532.25;2241566;79;51483;-75
2022/09/07 22:40:40;;;;;;;;;;;;;;;23.41;53.75;100529.55;2221842;79;51475;-74
2022/09/07 22:43:41;;;;;;;;;;;;;;;23.40;53.81;100533.31;2185410;79;50882;-75
2022/09/07 22:46:43;;;;;;;;;;;;;;;23.40;53.78;100529.77;2208777;79;50126;-74
2022/09/07 22:49:45;;;;;;;;;;;;;;;23.40;53.73;100532.46;2240237;79;51549;-75
2022/09/07 22:52:47;;;;;;;;;;;;;;;23.38;53.74;100530.00;2208838;79;50956;-75
2022/09/07 22:55:48;;;;;;;;;;;;;;;23.37;53.72;100520.22;2208829;79;51307;-74
2022/09/07 22:58:54;;;;;;;;;;;;;;;23.37;53.69;100518.05;2208933;79;50345;-75
2022/09/07 23:01:56;;;;;;;;;;;;;;;23.38;53.65;100514.33;2240393;79;50393;-75
2022/09/07 23:04:57;;;;;;;;;;;;;;;23.37;53.64;100509.42;2208896;79;51478;-76
2022/09/07 23:07:59;;;;;;;;;;;;;;;23.36;53.67;100512.36;2199084;79;49496;-76
2022/09/07 23:11:06;;;;;;;;;;;;;;;23.37;53.67;100500.50;2245566;78;50341;-76
2022/09/07 23:14:09;;;;;;;;;;;;;;;23.36;53.68;100496.16;2233634;78;52698;-76
2022/09/07 23:17:11;;;;;;;;;;;;;;;23.36;53.69;100486.70;2233799;78;50563;-76
2022/09/07 23:20:12;;;;;;;;;;;;;;;23.36;53.65;100490.23;2213383;79;50009;-76
2022/09/07 23:23:14;;;;;;;;;;;;;;;23.36;53.89;100493.46;2213371;79;51489;-76
2022/09/07 23:26:16;;;;;;;;;;;;;;;23.36;53.95;100486.70;2213400;79;50237;-75
2022/09/07 23:29:19;;;;;;;;;;;;;;;23.36;53.78;100486.18;2234015;79;50672;-75
2022/09/07 23:32:21;;;;;;;;;;;;;;;23.36;53.77;100488.06;2234342;79;25821;-76
2022/09/07 23:35:23;;;;;;;;;;;;;;;23.36;53.72;100483.48;2233599;78;51565;-75
2022/09/07 23:38:24;;;;;;;;;;;;;;;23.37;53.64;100480.25;2233307;79;51465;-76
2022/09/07 23:41:26;;;;;;;;;;;;;;;23.34;53.63;100481.52;2221447;80;50768;-76
2022/09/07 23:44:28;;;;;;;;;;;;;;;23.34;53.61;100484.22;2189025;80;50911;-75
2022/09/07 23:47:29;;;;;;;;;;;;;;;23.35;53.58;100484.54;2189249;80;51554;-75
2022/09/07 23:50:32;;;;;;;;;;;;;;;23.35;53.54;100473.73;2189180;80;51475;-75
2022/09/07 23:53:34;;;;;;;;;;;;;;;23.34;53.53;100464.49;2222091;80;50676;-76
2022/09/07 23:56:36;;;;;;;;;;;;;;;23.34;53.50;100465.31;2166201;80;52588;-75
2022/09/07 23:59:38;;;;;;;;;;;;;;;23.34;53.48;100464.49;2189539;80;50274;-75
